Time;durP1;ratioP1;P1;durP2;ratioP2;P2;SDS_P1;SDS_P2;PMS_P1;PMS_P2;Temp;Humidity;BMP_temperature;BMP_pressure;BME280_temperature;BME280_humidity;BME280_pressure;Samples;Min_cycle;Max_cycle;Signal;HPM_P1;HPM_P2
2023/07/19 00:01:39;;;;;;;4.47;4.23;;;;;;;;;;5036430;28;20419;-68
2023/07/19 00:04:05;;;;;;;4.17;3.87;;;;;;;;;;5036618;28;20832;-69
2023/07/19 00:06:31;;;;;;;7.77;4.10;;;;;;;;;;5036342;28;20906;-68
2023/07/19 00:08:57;;;;;;;4.87;4.10;;;;;;;;;;5036604;28;20412;-68
2023/07/19 00:11:23;;;;;;;5.40;4.00;;;;;;;;;;5036984;28;20514;-68
2023/07/19 00:13:49;;;;;;;5.93;3.70;;;;;;;;;;5036546;28;20419;-68
2023/07/19 00:16:15;;;;;;;7.47;4.30;;;;;;;;;;5051461;28;20435;-68
2023/07/19 00:18:41;;;;;;;3.93;3.73;;;;;;;;;;5035226;28;20447;-68
2023/07/19 00:21:07;;;;;;;5.30;3.87;;;;;;;;;;5035891;28;20420;-68
2023/07/19 00:23:33;;;;;;;4.60;4.20;;;;;;;;;;5037199;28;20434;-68
2023/07/19 00:25:59;;;;;;;5.73;4.80;;;;;;;;;;5036324;28;20447;-69
2023/07/19 00:28:25;;;;;;;9.50;4.60;;;;;;;;;;5036735;28;20782;-68
2023/07/19 00:30:58;;;;;;;7.83;4.57;;;;;;;;;;5035928;28;20419;-68
2023/07/19 00:33:24;;;;;;;6.50;3.60;;;;;;;;;;5036460;28;20451;-68
2023/07/19 00:35:52;;;;;;;4.53;4.10;;;;;;;;;;5035977;28;20454;-68
2023/07/19 00:38:18;;;;;;;5.00;3.97;;;;;;;;;;5036232;28;20423;-68
2023/07/19 00:40:44;;;;;;;4.70;4.40;;;;;;;;;;5036336;28;20403;-68
2023/07/19 00:43:10;;;;;;;5.60;5.13;;;;;;;;;;5035886;28;20422;-68
2023/07/19 00:45:38;;;;;;;2.90;2.80;;;;;;;;;;5036089;28;20412;-68
2023/07/19 00:48:04;;;;;;;7.03;5.00;;;;;;;;;;5036622;28;20427;-68
2023/07/19 00:50:30;;;;;;;6.17;5.13;;;;;;;;;;5051178;28;20415;-68
2023/07/19 00:52:56;;;;;;;4.97;4.60;;;;;;;;;;5035681;28;20512;-68
2023/07/19 00:55:22;;;;;;;6.90;4.77;;;;;;;;;;5036007;28;20967;-68
2023/07/19 00:57:48;;;;;;;4.60;4.27;;;;;;;;;;5035933;28;20833;-68
2023/07/19 01:00:14;;;;;;;4.97;4.67;;;;;;;;;;5035285;28;20407;-68
2023/07/19 01:02:41;;;;;;;5.37;4.90;;;;;;;;;;5035411;28;20449;-68
2023/07/19 01:05:07;;;;;;;4.77;3.40;;;;;;;;;;5035514;28;20835;-69
2023/07/19 01:07:33;;;;;;;3.70;3.50;;;;;;;;;;5035731;28;20427;-68
2023/07/19 01:09:59;;;;;;;4.67;4.40;;;;;;;;;;5035521;28;20519;-68
2023/07/19 01:12:25;;;;;;;5.67;4.70;;;;;;;;;;5035384;28;20471;-68
2023/07/19 01:14:51;;;;;;;5.10;4.77;;;;;;;;;;5035625;28;20404;-68
2023/07/19 01:17:17;;;;;;;6.93;4.47;;;;;;;;;;5035573;28;20461;-68
2023/07/19 01:19:44;;;;;;;4.70;4.50;;;;;;;;;;5035313;28;20511;-68
2023/07/19 01:22:11;;;;;;;5.47;4.20;;;;;;;;;;5035106;28;20497;-68
2023/07/19 01:24:39;;;;;;;3.60;3.50;;;;;;;;;;5035529;28;20427;-68
2023/07/19 01:27:05;;;;;;;6.43;5.10;;;;;;;;;;5035386;28;20422;-69
2023/07/19 01:29:31;;;;;;;5.07;4.50;;;;;;;;;;5035010;28;20911;-68
2023/07/19 01:31:57;;;;;;;5.67;5.03;;;;;;;;;;5050317;28;20490;-68
2023/07/19 01:34:23;;;;;;;5.70;4.20;;;;;;;;;;5034940;28;20939;-68
2023/07/19 01:36:49;;;;;;;5.00;4.80;;;;;;;;;;5035442;28;20420;-68
2023/07/19 01:39:15;;;;;;;4.30;4.00;;;;;;;;;;5035109;28;20906;-68
2023/07/19 01:41:41;;;;;;;5.43;4.13;;;;;;;;;;5035125;28;20423;-69
2023/07/19 01:44:07;;;;;;;6.77;4.03;;;;;;;;;;5035088;28;20926;-68
2023/07/19 01:46:35;;;;;;;5.27;4.90;;;;;;;;;;5034975;28;20872;-68
2023/07/19 01:49:01;;;;;;;4.23;4.03;;;;;;;;;;5049983;28;20438;-68
2023/07/19 01:51:27;;;;;;;5.33;4.90;;;;;;;;;;5049840;28;20474;-68
2023/07/19 01:53:54;;;;;;;3.93;3.73;;;;;;;;;;5034491;28;20962;-68
2023/07/19 01:56:20;;;;;;;5.17;4.33;;;;;;;;;;5034743;28;20419;-68
2023/07/19 01:58:46;;;;;;;4.97;4.77;;;;;;;;;;5049890;28;20434;-68
2023/07/19 02:01:12;;;;;;;5.70;3.90;;;;;;;;;;5034775;28;20419;-68
2023/07/19 02:03:38;;;;;;;8.20;5.27;;;;;;;;;;5034335;28;20837;-68
2023/07/19 02:06:04;;;;;;;5.03;4.63;;;;;;;;;;5034502;28;20454;-68
2023/07/19 02:08:30;;;;;;;6.87;4.10;;;;;;;;;;5034359;28;20971;-69
2023/07/19 02:10:56;;;;;;;13.87;4.33;;;;;;;;;;5034170;28;20416;-68
2023/07/19 02:13:21;;;;;;;7.17;4.00;;;;;;;;;;5034525;28;20426;-68
2023/07/19 02:15:47;;;;;;;14.13;4.20;;;;;;;;;;5034122;28;20470;-69
2023/07/19 02:18:14;;;;;;;5.20;4.70;;;;;;;;;;5034415;28;20426;-68
2023/07/19 02:20:47;;;;;;;4.43;4.13;;;;;;;;;;5034397;28;20807;-68
2023/07/19 02:23:13;;;;;;;4.10;3.80;;;;;;;;;;5034258;28;20484;-68
2023/07/19 02:25:40;;;;;;;4.43;4.03;;;;;;;;;;5033958;28;20415;-68
2023/07/19 02:28:07;;;;;;;9.53;5.17;;;;;;;;;;5034275;28;20434;-68
2023/07/19 02:30:33;;;;;;;6.40;4.43;;;;;;;;;;5033974;28;20423;-68
2023/07/19 02:32:59;;;;;;;5.60;5.30;;;;;;;;;;5033779;28;20533;-68
2023/07/19 02:35:25;;;;;;;5.47;4.97;;;;;;;;;;5034015;28;20422;-69
2023/07/19 02:37:50;;;;;;;4.30;3.90;;;;;;;;;;5033780;28;20459;-68
2023/07/19 02:40:16;;;;;;;4.77;4.50;;;;;;;;;;5033737;28;20428;-68
2023/07/19 02:42:42;;;;;;;7.03;4.20;;;;;;;;;;5033960;28;20430;-68
2023/07/19 02:45:08;;;;;;;5.70;3.90;;;;;;;;;;5033935;28;20984;-68
2023/07/19 02:47:34;;;;;;;4.90;4.60;;;;;;;;;;5033700;28;20191;-68
2023/07/19 02:50:00;;;;;;;5.60;5.20;;;;;;;;;;5049006;28;20865;-68
2023/07/19 02:52:26;;;;;;;5.73;5.33;;;;;;;;;;5033447;28;20852;-68
2023/07/19 02:54:52;;;;;;;7.03;4.90;;;;;;;;;;5033889;28;20442;-69
2023/07/19 02:57:19;;;;;;;5.00;4.70;;;;;;;;;;5033786;28;20545;-68
2023/07/19 02:59:45;;;;;;;5.20;4.80;;;;;;;;;;5033563;28;20602;-68
2023/07/19 03:02:13;;;;;;;4.80;4.17;;;;;;;;;;5033575;28;20423;-68
2023/07/19 03:04:39;;;;;;;4.10;3.93;;;;;;;;;;5033331;28;20412;-68
2023/07/19 03:07:05;;;;;;;9.17;4.53;;;;;;;;;;5034127;28;20415;-69
2023/07/19 03:09:31;;;;;;;5.63;4.53;;;;;;;;;;5033684;28;20421;-68
2023/07/19 03:11:57;;;;;;;12.37;4.40;;;;;;;;;;5034377;28;20553;-68
2023/07/19 03:14:23;;;;;;;14.47;5.30;;;;;;;;;;5033597;28;20488;-68
2023/07/19 03:16:49;;;;;;;5.70;5.30;;;;;;;;;;5033410;28;20415;-68
2023/07/19 03:19:15;;;;;;;10.07;5.43;;;;;;;;;;5033589;28;20415;-69
2023/07/19 03:21:41;;;;;;;9.20;6.33;;;;;;;;;;5033120;28;20412;-68
2023/07/19 03:24:08;;;;;;;13.53;4.97;;;;;;;;;;5034119;28;20415;-68
2023/07/19 03:26:34;;;;;;;3.60;3.40;;;;;;;;;;5038384;28;20453;-68
2023/07/19 03:29:00;;;;;;;3.77;3.63;;;;;;;;;;5038153;28;20495;-68
2023/07/19 03:31:26;;;;;;;5.83;5.40;;;;;;;;;;5037547;28;20471;-68
2023/07/19 03:33:52;;;;;;;9.00;5.50;;;;;;;;;;5037531;28;20899;-68
2023/07/19 03:36:18;;;;;;;5.43;5.00;;;;;;;;;;5037415;28;20824;-69
2023/07/19 03:38:44;;;;;;;5.33;4.73;;;;;;;;;;5037482;28;20506;-68
2023/07/19 03:41:11;;;;;;;16.03;4.17;;;;;;;;;;5037321;28;20441;-68
2023/07/19 03:43:37;;;;;;;5.80;4.77;;;;;;;;;;5037243;28;20426;-68
2023/07/19 03:46:05;;;;;;;10.00;4.50;;;;;;;;;;5036976;28;20510;-68
2023/07/19 03:48:31;;;;;;;5.93;5.53;;;;;;;;;;5036812;28;20457;-68
2023/07/19 03:50:58;;;;;;;6.07;4.40;;;;;;;;;;5037112;28;20449;-68
2023/07/19 03:53:25;;;;;;;5.03;4.60;;;;;;;;;;5036782;28;20524;-68
2023/07/19 03:55:54;;;;;;;5.80;4.30;;;;;;;;;;5037054;28;20419;-68
2023/07/19 03:58:21;;;;;;;5.60;4.20;;;;;;;;;;5037085;28;20431;-68
2023/07/19 04:00:47;;;;;;;5.40;4.90;;;;;;;;;;5037031;28;20411;-68
2023/07/19 04:03:13;;;;;;;5.33;4.93;;;;;;;;;;5036707;28;20797;-68
2023/07/19 04:05:39;;;;;;;5.27;4.87;;;;;;;;;;5036557;28;20427;-68
2023/07/19 04:08:05;;;;;;;14.33;5.30;;;;;;;;;;5036646;28;20550;-69
2023/07/19 04:10:31;;;;;;;5.03;4.63;;;;;;;;;;5036583;28;20423;-68
2023/07/19 04:12:57;;;;;;;4.27;3.97;;;;;;;;;;5036748;28;20474;-69
2023/07/19 04:15:23;;;;;;;6.07;4.30;;;;;;;;;;5036715;28;20443;-69
2023/07/19 04:17:49;;;;;;;8.43;5.13;;;;;;;;;;5036432;28;20415;-68
2023/07/19 04:20:15;;;;;;;4.60;4.27;;;;;;;;;;5036325;28;20936;-68
2023/07/19 04:22:42;;;;;;;9.60;4.70;;;;;;;;;;5036308;28;20964;-68
2023/07/19 04:25:08;;;;;;;10.10;5.00;;;;;;;;;;5036477;28;20419;-69
2023/07/19 04:27:34;;;;;;;4.73;4.20;;;;;;;;;;5036550;28;20411;-68
2023/07/19 04:30:00;;;;;;;6.40;4.23;;;;;;;;;;5036702;28;20469;-69
2023/07/19 04:32:26;;;;;;;4.80;4.30;;;;;;;;;;5036014;28;20510;-68
2023/07/19 04:34:53;;;;;;;5.03;4.70;;;;;;;;;;5051213;28;20412;-68
2023/07/19 04:37:19;;;;;;;6.10;4.27;;;;;;;;;;5034985;28;20966;-68
2023/07/19 04:39:45;;;;;;;7.87;4.90;;;;;;;;;;5036242;28;20506;-69
2023/07/19 04:42:11;;;;;;;7.43;4.90;;;;;;;;;;5035964;28;20497;-69
2023/07/19 04:44:38;;;;;;;5.63;4.87;;;;;;;;;;5036471;28;20423;-68
2023/07/19 04:47:04;;;;;;;4.83;4.10;;;;;;;;;;5035917;28;20981;-68
2023/07/19 04:49:30;;;;;;;5.50;4.83;;;;;;;;;;5051351;28;20411;-69
2023/07/19 04:51:56;;;;;;;5.20;4.90;;;;;;;;;;5035983;28;20525;-69
2023/07/19 04:54:22;;;;;;;4.37;4.17;;;;;;;;;;5035569;28;20451;-69
2023/07/19 04:56:49;;;;;;;6.07;5.00;;;;;;;;;;5035982;28;20415;-69
2023/07/19 04:59:15;;;;;;;6.43;4.50;;;;;;;;;;5035568;28;20415;-69
2023/07/19 05:01:41;;;;;;;5.30;4.43;;;;;;;;;;5035824;28;20418;-69
2023/07/19 05:04:07;;;;;;;6.20;4.60;;;;;;;;;;5035610;28;20412;-69
2023/07/19 05:06:33;;;;;;;4.93;4.30;;;;;;;;;;5035670;28;20423;-69
2023/07/19 05:08:59;;;;;;;5.30;4.90;;;;;;;;;;5035722;28;20937;-69
2023/07/19 05:11:25;;;;;;;5.27;4.77;;;;;;;;;;5035252;28;20458;-69
2023/07/19 05:13:51;;;;;;;6.20;5.30;;;;;;;;;;5035689;28;20462;-69
2023/07/19 05:16:17;;;;;;;5.97;5.37;;;;;;;;;;5035304;28;20427;-69
2023/07/19 05:18:44;;;;;;;6.50;5.07;;;;;;;;;;5035586;28;20481;-69
2023/07/19 05:21:10;;;;;;;11.40;5.30;;;;;;;;;;5035409;28;20496;-69
2023/07/19 05:23:36;;;;;;;13.60;5.00;;;;;;;;;;5035335;28;20451;-69
2023/07/19 05:26:02;;;;;;;8.63;5.17;;;;;;;;;;5035375;28;20412;-69
2023/07/19 05:28:30;;;;;;;7.63;5.10;;;;;;;;;;5035357;28;20506;-69
2023/07/19 05:31:00;;;;;;;16.73;5.50;;;;;;;;;;5050317;28;20494;-69
2023/07/19 05:33:26;;;;;;;9.10;5.60;;;;;;;;;;5035022;28;20577;-69
2023/07/19 05:35:52;;;;;;;5.30;5.00;;;;;;;;;;5034966;28;20447;-68
2023/07/19 05:38:18;;;;;;;4.67;4.37;;;;;;;;;;5035121;28;20430;-69
2023/07/19 05:40:44;;;;;;;6.17;5.53;;;;;;;;;;5034802;28;20953;-69
2023/07/19 05:43:10;;;;;;;12.13;4.90;;;;;;;;;;5035049;28;20822;-69
2023/07/19 05:45:36;;;;;;;4.33;4.13;;;;;;;;;;5034564;28;20470;-68
2023/07/19 05:48:02;;;;;;;14.23;5.50;;;;;;;;;;5034695;28;20420;-69
2023/07/19 05:50:28;;;;;;;4.50;4.30;;;;;;;;;;5034169;28;20842;-69
2023/07/19 05:52:54;;;;;;;5.97;5.30;;;;;;;;;;5033435;28;20526;-68
2023/07/19 05:55:20;;;;;;;7.10;4.40;;;;;;;;;;5033834;28;20834;-68
2023/07/19 05:57:46;;;;;;;4.83;4.33;;;;;;;;;;5034020;28;20988;-69
2023/07/19 06:00:28;;;;;;;13.47;5.00;;;;;;;;;;5034141;28;20416;-68
2023/07/19 06:02:57;;;;;;;4.70;4.40;;;;;;;;;;5034186;28;20395;-68
2023/07/19 06:05:24;;;;;;;4.40;4.10;;;;;;;;;;5034262;28;20411;-68
2023/07/19 06:07:50;;;;;;;6.73;4.90;;;;;;;;;;5033840;28;20927;-68
2023/07/19 06:10:16;;;;;;;5.10;4.70;;;;;;;;;;5033951;28;20411;-69
2023/07/19 06:12:43;;;;;;;6.20;5.20;;;;;;;;;;5034518;28;20475;-68
2023/07/19 06:15:09;;;;;;;10.70;4.87;;;;;;;;;;5034398;28;20756;-68
2023/07/19 06:17:36;;;;;;;6.70;4.13;;;;;;;;;;5033812;28;20427;-67
2023/07/19 06:20:04;;;;;;;4.47;4.10;;;;;;;;;;5033993;28;20423;-68
2023/07/19 06:22:30;;;;;;;9.20;4.47;;;;;;;;;;5034018;28;20455;-69
2023/07/19 06:24:56;;;;;;;5.43;4.83;;;;;;;;;;5033921;28;20473;-69
2023/07/19 06:27:22;;;;;;;7.03;4.27;;;;;;;;;;5033687;28;20818;-68
2023/07/19 06:29:48;;;;;;;7.33;4.23;;;;;;;;;;5033629;28;20423;-69
2023/07/19 06:32:14;;;;;;;4.97;4.57;;;;;;;;;;5033397;28;20541;-69
2023/07/19 06:34:40;;;;;;;8.20;4.17;;;;;;;;;;5033461;28;20415;-69
2023/07/19 06:37:05;;;;;;;6.07;4.93;;;;;;;;;;5033597;28;20425;-69
2023/07/19 06:42:36;;;;;;;5.40;3.70;;;;;;;;;;5033506;28;20398;-68
2023/07/19 06:45:03;;;;;;;4.80;4.40;;;;;;;;;;5033426;28;20419;-69
2023/07/19 06:47:29;;;;;;;5.20;4.77;;;;;;;;;;5033437;28;20408;-69
2023/07/19 06:49:56;;;;;;;9.63;4.53;;;;;;;;;;5033270;28;20838;-69
2023/07/19 06:52:23;;;;;;;8.90;4.80;;;;;;;;;;5032843;28;20475;-68
2023/07/19 06:54:49;;;;;;;6.90;4.57;;;;;;;;;;5033663;28;20419;-69
2023/07/19 06:57:15;;;;;;;10.83;4.77;;;;;;;;;;5033386;28;20840;-68
2023/07/19 06:59:41;;;;;;;5.17;4.60;;;;;;;;;;5032483;28;20419;-69
2023/07/19 07:02:08;;;;;;;8.37;5.03;;;;;;;;;;5033232;28;20428;-68
2023/07/19 07:04:34;;;;;;;11.13;4.07;;;;;;;;;;5033265;28;20419;-69
2023/07/19 07:06:59;;;;;;;11.53;4.73;;;;;;;;;;5033454;28;20427;-71
2023/07/19 07:09:25;;;;;;;9.20;6.13;;;;;;;;;;5033881;28;20415;-69
2023/07/19 07:11:52;;;;;;;10.53;4.80;;;;;;;;;;5033248;28;20525;-69
2023/07/19 07:14:18;;;;;;;10.07;4.43;;;;;;;;;;5033126;28;20502;-68
2023/07/19 07:16:44;;;;;;;7.93;4.67;;;;;;;;;;5033092;28;20454;-68
2023/07/19 07:19:10;;;;;;;10.70;3.80;;;;;;;;;;5033106;28;20504;-68
2023/07/19 07:21:36;;;;;;;4.17;3.70;;;;;;;;;;5033203;28;20187;-68
2023/07/19 07:24:02;;;;;;;6.30;3.50;;;;;;;;;;5033259;28;20765;-71
2023/07/19 07:26:28;;;;;;;4.17;4.07;;;;;;;;;;5033190;28;20414;-68
2023/07/19 07:28:54;;;;;;;5.57;3.20;;;;;;;;;;5032931;28;20458;-68
2023/07/19 07:31:20;;;;;;;5.97;4.60;;;;;;;;;;5033119;28;20510;-68
2023/07/19 07:33:46;;;;;;;3.93;3.53;;;;;;;;;;5033064;28;20423;-68
2023/07/19 07:36:12;;;;;;;5.43;3.30;;;;;;;;;;5033016;28;20411;-67
2023/07/19 07:38:38;;;;;;;5.80;3.53;;;;;;;;;;5032914;28;20520;-68
2023/07/19 07:41:05;;;;;;;4.17;3.87;;;;;;;;;;5033400;28;20407;-68
2023/07/19 07:43:31;;;;;;;9.10;4.10;;;;;;;;;;5032674;28;20486;-68
2023/07/19 07:45:58;;;;;;;3.73;3.40;;;;;;;;;;5033071;28;20423;-67
2023/07/19 07:48:25;;;;;;;5.03;3.67;;;;;;;;;;5032698;28;20813;-67
2023/07/19 07:50:51;;;;;;;4.63;4.07;;;;;;;;;;5032106;28;20423;-68
2023/07/19 07:53:18;;;;;;;13.00;3.77;;;;;;;;;;5031881;28;20498;-68
2023/07/19 07:55:44;;;;;;;7.10;5.30;;;;;;;;;;5032113;28;20957;-68
2023/07/19 07:58:11;;;;;;;3.40;3.30;;;;;;;;;;5032821;28;20423;-68
2023/07/19 08:00:37;;;;;;;4.30;4.00;;;;;;;;;;5032589;28;20419;-69
2023/07/19 08:03:03;;;;;;;5.23;4.00;;;;;;;;;;5032929;28;20419;-72
2023/07/19 08:05:29;;;;;;;4.17;3.87;;;;;;;;;;5032776;28;20455;-71
2023/07/19 08:07:55;;;;;;;4.60;4.20;;;;;;;;;;5032567;28;20462;-69
2023/07/19 08:10:21;;;;;;;8.40;3.80;;;;;;;;;;5033979;28;20484;-69
2023/07/19 08:12:47;;;;;;;3.47;3.37;;;;;;;;;;5036060;28;20498;-69
2023/07/19 08:15:13;;;;;;;4.63;3.50;;;;;;;;;;5035463;28;20420;-68
2023/07/19 08:17:39;;;;;;;3.47;3.27;;;;;;;;;;5035788;28;20430;-69
2023/07/19 08:20:09;;;;;;;4.17;3.77;;;;;;;;;;5035191;28;20415;-69
2023/07/19 08:22:35;;;;;;;7.13;4.60;;;;;;;;;;5035277;28;20423;-68
2023/07/19 08:25:01;;;;;;;3.30;3.10;;;;;;;;;;5036317;28;20465;-69
2023/07/19 08:27:27;;;;;;;4.17;3.97;;;;;;;;;;5036104;28;20428;-66
2023/07/19 08:29:53;;;;;;;4.07;3.67;;;;;;;;;;5035725;28;20762;-67
2023/07/19 08:32:19;;;;;;;4.17;3.83;;;;;;;;;;5035412;28;20507;-62
2023/07/19 08:34:45;;;;;;;6.03;3.83;;;;;;;;;;5035637;28;20448;-63
2023/07/19 08:37:11;;;;;;;6.47;3.77;;;;;;;;;;5035410;28;20435;-62
2023/07/19 08:39:37;;;;;;;5.23;3.10;;;;;;;;;;5035690;28;20427;-63
2023/07/19 08:42:04;;;;;;;3.80;3.50;;;;;;;;;;5035631;28;20429;-63
2023/07/19 08:44:30;;;;;;;3.63;3.33;;;;;;;;;;5035388;28;20415;-63
2023/07/19 08:46:56;;;;;;;4.40;3.97;;;;;;;;;;5050703;28;20423;-63
2023/07/19 08:49:22;;;;;;;3.43;3.13;;;;;;;;;;5035629;28;20511;-63
2023/07/19 08:51:48;;;;;;;3.97;3.70;;;;;;;;;;5035560;28;20499;-63
2023/07/19 08:54:14;;;;;;;4.63;4.23;;;;;;;;;;5034789;28;20542;-63
2023/07/19 08:56:41;;;;;;;4.37;3.90;;;;;;;;;;5035134;28;20419;-63
2023/07/19 08:59:07;;;;;;;3.77;3.23;;;;;;;;;;5035553;28;20455;-63
2023/07/19 09:01:34;;;;;;;4.30;3.57;;;;;;;;;;5034835;28;20419;-62
2023/07/19 09:04:00;;;;;;;5.00;4.10;;;;;;;;;;5035052;28;20516;-63
2023/07/19 09:06:28;;;;;;;4.93;3.47;;;;;;;;;;5035340;28;20506;-63
2023/07/19 09:08:55;;;;;;;7.80;3.63;;;;;;;;;;5035448;28;20419;-63
2023/07/19 09:11:25;;;;;;;5.80;3.80;;;;;;;;;;5034542;28;20470;-63
2023/07/19 09:13:53;;;;;;;10.13;3.53;;;;;;;;;;5034898;28;20427;-64
2023/07/19 09:16:25;;;;;;;4.00;3.70;;;;;;;;;;5035271;28;20445;-66
2023/07/19 09:18:51;;;;;;;4.10;3.20;;;;;;;;;;5035274;28;20940;-63
2023/07/19 09:21:17;;;;;;;3.53;3.40;;;;;;;;;;5049788;28;20423;-63
2023/07/19 09:23:43;;;;;;;3.90;3.70;;;;;;;;;;5033798;28;20919;-63
2023/07/19 09:26:09;;;;;;;7.20;3.17;;;;;;;;;;5034468;28;20922;-63
2023/07/19 09:28:35;;;;;;;6.13;3.43;;;;;;;;;;5035240;28;20427;-63
2023/07/19 09:31:02;;;;;;;3.10;2.83;;;;;;;;;;5034939;28;20416;-63
2023/07/19 09:33:28;;;;;;;3.00;2.80;;;;;;;;;;5035088;28;20777;-63
2023/07/19 09:35:55;;;;;;;4.27;3.97;;;;;;;;;;5034998;28;20495;-63
2023/07/19 09:38:22;;;;;;;3.77;3.47;;;;;;;;;;5034640;28;20914;-63
2023/07/19 09:40:49;;;;;;;6.57;3.70;;;;;;;;;;5034601;28;20416;-63
2023/07/19 09:43:16;;;;;;;4.40;4.00;;;;;;;;;;5034510;28;20431;-63
2023/07/19 09:45:43;;;;;;;6.50;3.40;;;;;;;;;;5049777;28;20431;-63
2023/07/19 09:48:09;;;;;;;10.97;3.97;;;;;;;;;;5034555;28;20482;-63
2023/07/19 09:50:37;;;;;;;3.57;3.47;;;;;;;;;;5034671;28;20814;-63
2023/07/19 09:53:03;;;;;;;3.63;3.53;;;;;;;;;;5034173;28;20519;-63
2023/07/19 09:55:29;;;;;;;3.77;3.57;;;;;;;;;;5034402;28;20431;-62
2023/07/19 09:57:55;;;;;;;4.20;3.93;;;;;;;;;;5034563;28;20420;-63
2023/07/19 10:00:22;;;;;;;4.60;4.30;;;;;;;;;;5034577;28;20427;-63
2023/07/19 10:02:48;;;;;;;4.53;3.13;;;;;;;;;;5034072;28;20868;-63
2023/07/19 10:05:14;;;;;;;3.90;3.70;;;;;;;;;;5034411;28;20412;-63
2023/07/19 10:07:42;;;;;;;4.10;3.60;;;;;;;;;;5034093;28;21003;-66
2023/07/19 10:10:14;;;;;;;4.40;3.60;;;;;;;;;;5034235;28;20757;-69
2023/07/19 10:12:45;;;;;;;7.80;3.73;;;;;;;;;;5033978;28;20989;-69
2023/07/19 10:15:13;;;;;;;4.50;3.83;;;;;;;;;;5049340;28;20487;-69
2023/07/19 10:17:40;;;;;;;3.70;3.40;;;;;;;;;;5034041;28;20776;-69
2023/07/19 10:20:07;;;;;;;5.70;3.23;;;;;;;;;;5033872;28;20418;-69
2023/07/19 10:22:48;;;;;;;4.53;3.90;;;;;;;;;;5033505;28;20466;-69
2023/07/19 10:25:14;;;;;;;4.30;3.93;;;;;;;;;;5033477;28;20411;-69
2023/07/19 10:27:40;;;;;;;3.93;3.60;;;;;;;;;;5033528;28;20426;-69
2023/07/19 10:33:10;;;;;;;4.40;2.90;;;;;;;;;;5033126;28;20470;-68
2023/07/19 10:35:36;;;;;;;3.13;2.70;;;;;;;;;;5033053;28;20427;-68
2023/07/19 10:38:02;;;;;;;3.30;3.17;;;;;;;;;;5048738;28;20429;-68
2023/07/19 10:40:28;;;;;;;6.73;4.40;;;;;;;;;;5033620;28;20411;-68
2023/07/19 10:42:55;;;;;;;3.27;3.07;;;;;;;;;;5033199;28;20442;-68
2023/07/19 10:45:21;;;;;;;3.83;3.63;;;;;;;;;;5033262;28;20411;-68
2023/07/19 10:47:47;;;;;;;3.10;2.83;;;;;;;;;;5033700;28;20415;-68
2023/07/19 10:50:13;;;;;;;6.20;2.87;;;;;;;;;;5033161;28;20437;-68
2023/07/19 10:52:39;;;;;;;3.53;3.20;;;;;;;;;;5048139;28;20491;-69
2023/07/19 10:55:05;;;;;;;3.03;2.83;;;;;;;;;;5033180;28;20419;-69
2023/07/19 10:57:31;;;;;;;4.17;3.80;;;;;;;;;;5033141;28;20412;-68
2023/07/19 10:59:57;;;;;;;3.30;3.10;;;;;;;;;;5032931;28;20441;-69
2023/07/19 11:02:24;;;;;;;3.80;3.50;;;;;;;;;;5032971;28;20514;-69
2023/07/19 11:04:50;;;;;;;3.23;3.10;;;;;;;;;;5032909;28;20485;-69
2023/07/19 11:07:16;;;;;;;4.67;3.50;;;;;;;;;;5033085;28;20426;-69
2023/07/19 11:09:42;;;;;;;3.27;3.07;;;;;;;;;;5032949;28;20906;-69
2023/07/19 11:12:10;;;;;;;3.97;3.30;;;;;;;;;;5032763;28;20467;-69
2023/07/19 11:14:41;;;;;;;3.70;3.07;;;;;;;;;;5033149;28;20506;-69
2023/07/19 11:17:07;;;;;;;2.93;2.83;;;;;;;;;;5033289;28;20431;-69
2023/07/19 11:19:32;;;;;;;3.10;2.87;;;;;;;;;;5032816;28;20442;-69
2023/07/19 11:21:59;;;;;;;3.60;3.13;;;;;;;;;;5032911;28;20421;-69
2023/07/19 11:24:33;;;;;;;3.00;2.90;;;;;;;;;;5032540;28;20616;-69
2023/07/19 11:26:59;;;;;;;2.87;2.77;;;;;;;;;;5032915;28;20400;-69
2023/07/19 11:29:29;;;;;;;4.00;3.00;;;;;;;;;;5032794;28;20426;-69
2023/07/19 11:31:55;;;;;;;2.70;2.60;;;;;;;;;;5032777;28;20494;-69
2023/07/19 11:34:21;;;;;;;2.77;2.67;;;;;;;;;;5032568;28;20427;-69
2023/07/19 11:36:48;;;;;;;2.97;2.73;;;;;;;;;;5032649;28;20411;-68
2023/07/19 11:39:14;;;;;;;4.80;3.20;;;;;;;;;;5032431;28;20941;-68
2023/07/19 11:41:42;;;;;;;2.83;2.53;;;;;;;;;;5032580;28;20816;-69
2023/07/19 11:44:13;;;;;;;3.27;3.07;;;;;;;;;;5032807;28;20450;-68
2023/07/19 11:46:39;;;;;;;3.67;3.37;;;;;;;;;;5035710;28;20823;-68
2023/07/19 11:49:09;;;;;;;2.67;2.57;;;;;;;;;;5036612;28;20426;-68
2023/07/19 11:51:36;;;;;;;3.23;3.13;;;;;;;;;;5036302;28;20451;-69
2023/07/19 11:54:03;;;;;;;3.00;2.80;;;;;;;;;;5036139;28;20470;-69
2023/07/19 11:56:29;;;;;;;3.27;3.07;;;;;;;;;;5051417;28;20502;-69
2023/07/19 11:58:55;;;;;;;4.73;3.17;;;;;;;;;;5036495;28;20427;-69
2023/07/19 12:01:21;;;;;;;2.63;2.50;;;;;;;;;;5036192;28;20412;-69
2023/07/19 12:03:47;;;;;;;4.00;3.10;;;;;;;;;;5036468;28;20423;-69
2023/07/19 12:06:14;;;;;;;2.40;2.40;;;;;;;;;;5036153;28;20866;-68
2023/07/19 12:08:44;;;;;;;2.73;2.40;;;;;;;;;;5036177;28;20910;-69
2023/07/19 12:11:10;;;;;;;3.37;3.10;;;;;;;;;;5051264;28;20415;-69
2023/07/19 12:13:36;;;;;;;2.40;2.30;;;;;;;;;;5051384;28;20955;-69
2023/07/19 12:16:02;;;;;;;2.57;2.47;;;;;;;;;;5036098;28;20418;-68
2023/07/19 12:18:29;;;;;;;4.27;2.40;;;;;;;;;;5035836;28;20894;-70
2023/07/19 12:20:55;;;;;;;2.37;2.30;;;;;;;;;;5036097;28;20797;-69
2023/07/19 12:23:23;;;;;;;3.00;2.87;;;;;;;;;;5036006;28;20769;-68
2023/07/19 12:25:49;;;;;;;5.33;3.70;;;;;;;;;;5036232;28;20427;-68
2023/07/19 12:28:16;;;;;;;2.40;2.33;;;;;;;;;;5036254;28;20454;-68
2023/07/19 12:30:42;;;;;;;5.90;2.83;;;;;;;;;;5036182;28;20443;-69
2023/07/19 12:33:08;;;;;;;7.07;2.93;;;;;;;;;;5036028;28;20506;-68
2023/07/19 12:35:36;;;;;;;5.23;2.70;;;;;;;;;;5035693;28;20423;-69
2023/07/19 12:38:02;;;;;;;7.33;2.87;;;;;;;;;;5036068;28;20415;-69
2023/07/19 12:40:30;;;;;;;3.23;2.93;;;;;;;;;;5035825;28;20415;-68
2023/07/19 12:42:57;;;;;;;2.63;2.50;;;;;;;;;;5035649;28;20419;-69
2023/07/19 12:45:23;;;;;;;2.70;2.50;;;;;;;;;;5035633;28;20408;-68
2023/07/19 12:47:49;;;;;;;3.00;2.47;;;;;;;;;;5035528;28;20474;-69
2023/07/19 12:50:15;;;;;;;6.20;2.63;;;;;;;;;;5035416;28;20419;-68
2023/07/19 12:52:44;;;;;;;2.50;2.37;;;;;;;;;;5050591;28;20497;-68
2023/07/19 12:55:10;;;;;;;14.20;2.57;;;;;;;;;;5035338;28;20895;-68
2023/07/19 12:57:36;;;;;;;2.20;2.10;;;;;;;;;;5034729;28;20420;-68
2023/07/19 13:00:04;;;;;;;2.70;2.40;;;;;;;;;;5035373;28;20411;-68
2023/07/19 13:02:32;;;;;;;3.20;3.00;;;;;;;;;;5035618;28;20416;-68
2023/07/19 13:04:57;;;;;;;2.40;2.30;;;;;;;;;;5035592;28;20415;-68
2023/07/19 13:07:26;;;;;;;2.33;2.23;;;;;;;;;;5035343;28;20419;-68
2023/07/19 13:09:52;;;;;;;6.23;3.00;;;;;;;;;;5035140;28;20511;-69
2023/07/19 13:12:19;;;;;;;3.27;2.87;;;;;;;;;;5035446;28;20924;-69
2023/07/19 13:14:45;;;;;;;4.97;4.57;;;;;;;;;;5035344;28;20506;-69
2023/07/19 13:17:11;;;;;;;2.33;2.23;;;;;;;;;;5035130;28;20458;-69
2023/07/19 13:19:37;;;;;;;5.40;3.00;;;;;;;;;;5035111;28;20427;-69
2023/07/19 13:22:03;;;;;;;7.30;2.50;;;;;;;;;;5035251;28;20426;-68
2023/07/19 13:24:30;;;;;;;4.03;2.70;;;;;;;;;;5050320;28;20776;-68
2023/07/19 13:26:56;;;;;;;2.33;2.33;;;;;;;;;;5034951;28;20481;-68
2023/07/19 13:29:22;;;;;;;1.93;1.83;;;;;;;;;;5050185;28;20779;-69
2023/07/19 13:31:48;;;;;;;2.60;2.40;;;;;;;;;;5034461;28;20811;-69
2023/07/19 13:34:14;;;;;;;2.97;2.80;;;;;;;;;;5034802;28;20416;-69
2023/07/19 13:36:40;;;;;;;2.57;2.30;;;;;;;;;;5034532;28;20522;-69
2023/07/19 13:39:07;;;;;;;3.60;3.20;;;;;;;;;;5034721;28;20519;-69
2023/07/19 13:41:34;;;;;;;3.20;2.03;;;;;;;;;;5035152;28;20430;-69
2023/07/19 13:44:00;;;;;;;2.50;2.37;;;;;;;;;;5034559;28;20462;-70
2023/07/19 13:46:26;;;;;;;4.03;2.73;;;;;;;;;;5034414;28;20477;-69
2023/07/19 13:48:53;;;;;;;5.40;2.33;;;;;;;;;;5034736;28;20918;-70
2023/07/19 13:51:19;;;;;;;4.37;2.70;;;;;;;;;;5035339;28;20431;-65
2023/07/19 13:53:45;;;;;;;3.00;2.67;;;;;;;;;;5034836;28;20554;-65
2023/07/19 13:56:11;;;;;;;6.80;2.30;;;;;;;;;;5034498;28;20430;-65
2023/07/19 13:58:39;;;;;;;3.43;3.07;;;;;;;;;;5034593;28;20424;-65
2023/07/19 14:01:05;;;;;;;2.80;2.60;;;;;;;;;;5034446;28;20500;-65
2023/07/19 14:03:31;;;;;;;2.97;2.80;;;;;;;;;;5034458;28;20466;-65
2023/07/19 14:05:57;;;;;;;2.37;2.20;;;;;;;;;;5034149;28;20404;-65
2023/07/19 14:08:23;;;;;;;3.70;2.67;;;;;;;;;;5034247;28;20502;-66
2023/07/19 14:10:49;;;;;;;2.90;2.70;;;;;;;;;;5034132;28;20446;-65
2023/07/19 14:13:15;;;;;;;6.53;2.73;;;;;;;;;;5034204;28;20504;-66
2023/07/19 14:15:41;;;;;;;3.40;3.20;;;;;;;;;;5033839;28;20419;-69
2023/07/19 14:18:07;;;;;;;2.17;2.17;;;;;;;;;;5033829;28;20918;-69
2023/07/19 14:20:33;;;;;;;5.03;2.70;;;;;;;;;;5034142;28;20407;-69
2023/07/19 14:22:59;;;;;;;10.03;2.60;;;;;;;;;;5034055;28;20428;-70
2023/07/19 14:25:25;;;;;;;2.73;2.60;;;;;;;;;;5034118;28;20419;-70
2023/07/19 14:27:51;;;;;;;3.10;2.90;;;;;;;;;;5033836;28;20415;-69
2023/07/19 14:30:17;;;;;;;2.23;2.13;;;;;;;;;;5033864;28;20419;-69
2023/07/19 14:32:43;;;;;;;4.70;2.97;;;;;;;;;;5033545;28;20470;-70
2023/07/19 14:35:09;;;;;;;2.67;2.57;;;;;;;;;;5033559;28;20450;-69
2023/07/19 14:37:36;;;;;;;2.63;2.47;;;;;;;;;;5033863;28;20427;-69
2023/07/19 14:40:03;;;;;;;2.90;2.70;;;;;;;;;;5033836;28;20415;-70
2023/07/19 14:42:29;;;;;;;2.80;2.60;;;;;;;;;;5033552;28;20431;-70
2023/07/19 14:44:57;;;;;;;7.33;6.83;;;;;;;;;;5033303;28;20415;-69